sensor_id;sensor_type;location;lat;lon;timestamp;pressure;altitude;pressure_sealevel;temperature;humidity
7200;BME280;3641;49.082;8.200;2023-04-22T00:01:54;99647.63;;;11.22;86.55
7200;BME280;3641;49.082;8.200;2023-04-22T00:04:21;99643.81;;;11.03;90.41
7200;BME280;3641;49.082;8.200;2023-04-22T00:06:47;99647.00;;;11.14;88.93
7200;BME280;3641;49.082;8.200;2023-04-22T00:09:14;99640.25;;;11.09;88.71
7200;BME280;3641;49.082;8.200;2023-04-22T00:11:41;99649.75;;;11.14;85.87
7200;BME280;3641;49.082;8.200;2023-04-22T00:14:08;99637.97;;;11.20;86.49
7200;BME280;3641;49.082;8.200;2023-04-22T00:16:34;99638.16;;;11.18;86.26
7200;BME280;3641;49.082;8.200;2023-04-22T00:19:01;99641.34;;;11.22;86.15
7200;BME280;3641;49.082;8.200;2023-04-22T00:21:27;99626.88;;;11.28;84.30
7200;BME280;3641;49.082;8.200;2023-04-22T00:23:54;99629.56;;;11.21;85.79
7200;BME280;3641;49.082;8.200;2023-04-22T00:26:21;99625.59;;;11.24;85.22
7200;BME280;3641;49.082;8.200;2023-04-22T00:28:49;99630.84;;;11.25;84.55
7200;BME280;3641;49.082;8.200;2023-04-22T00:31:15;99622.44;;;11.27;84.42
7200;BME280;3641;49.082;8.200;2023-04-22T00:33:42;99632.28;;;11.08;88.92
7200;BME280;3641;49.082;8.200;2023-04-22T00:36:08;99626.81;;;11.08;87.32
7200;BME280;3641;49.082;8.200;2023-04-22T00:38:35;99628.91;;;11.06;86.58
7200;BME280;3641;49.082;8.200;2023-04-22T00:41:01;99623.88;;;11.09;86.70
7200;BME280;3641;49.082;8.200;2023-04-22T00:43:28;99631.63;;;10.99;88.31
7200;BME280;3641;49.082;8.200;2023-04-22T00:45:56;99635.88;;;10.60;94.12
7200;BME280;3641;49.082;8.200;2023-04-22T00:48:23;99633.28;;;10.87;87.76
7200;BME280;3641;49.082;8.200;2023-04-22T00:50:50;99633.50;;;10.99;86.63
7200;BME280;3641;49.082;8.200;2023-04-22T00:53:17;99640.88;;;10.98;88.58
7200;BME280;3641;49.082;8.200;2023-04-22T00:55:43;99643.75;;;10.83;89.83
7200;BME280;3641;49.082;8.200;2023-04-22T00:58:10;99649.06;;;10.98;87.03
7200;BME280;3641;49.082;8.200;2023-04-22T01:00:36;99637.47;;;10.89;88.31
7200;BME280;3641;49.082;8.200;2023-04-22T01:03:05;99643.56;;;10.92;86.96
7200;BME280;3641;49.082;8.200;2023-04-22T01:05:31;99642.28;;;10.87;88.13
7200;BME280;3641;49.082;8.200;2023-04-22T01:07:58;99641.88;;;10.90;86.93
7200;BME280;3641;49.082;8.200;2023-04-22T01:10:25;99639.31;;;10.76;90.78
7200;BME280;3641;49.082;8.200;2023-04-22T01:12:52;99637.03;;;10.86;86.70
7200;BME280;3641;49.082;8.200;2023-04-22T01:15:19;99634.53;;;10.91;86.06
7200;BME280;3641;49.082;8.200;2023-04-22T01:17:46;99635.78;;;10.88;87.19
7200;BME280;3641;49.082;8.200;2023-04-22T01:20:14;99642.75;;;10.98;85.20
7200;BME280;3641;49.082;8.200;2023-04-22T01:22:43;99643.16;;;10.95;85.36
7200;BME280;3641;49.082;8.200;2023-04-22T01:25:11;99642.97;;;10.96;85.59
7200;BME280;3641;49.082;8.200;2023-04-22T01:27:38;99644.22;;;11.00;84.49
7200;BME280;3641;49.082;8.200;2023-04-22T01:30:06;99651.78;;;10.98;85.35
7200;BME280;3641;49.082;8.200;2023-04-22T01:32:34;99649.03;;;10.92;85.90
7200;BME280;3641;49.082;8.200;2023-04-22T01:35:00;99657.44;;;10.97;84.97
7200;BME280;3641;49.082;8.200;2023-04-22T01:37:27;99656.56;;;10.83;85.83
7200;BME280;3641;49.082;8.200;2023-04-22T01:39:54;99648.59;;;10.88;86.52
7200;BME280;3641;49.082;8.200;2023-04-22T01:42:23;99654.44;;;10.85;86.04
7200;BME280;3641;49.082;8.200;2023-04-22T01:44:50;99653.84;;;10.89;85.54
7200;BME280;3641;49.082;8.200;2023-04-22T01:47:16;99656.13;;;10.79;86.64
7200;BME280;3641;49.082;8.200;2023-04-22T01:49:43;99644.38;;;10.79;85.95
7200;BME280;3641;49.082;8.200;2023-04-22T01:52:09;99647.72;;;10.81;85.31
7200;BME280;3641;49.082;8.200;2023-04-22T01:54:36;99651.09;;;10.83;85.00
7200;BME280;3641;49.082;8.200;2023-04-22T01:57:07;99652.56;;;10.79;85.08
7200;BME280;3641;49.082;8.200;2023-04-22T01:59:36;99658.22;;;10.77;85.03
7200;BME280;3641;49.082;8.200;2023-04-22T02:02:02;99650.81;;;10.64;86.49
7200;BME280;3641;49.082;8.200;2023-04-22T02:04:29;99644.53;;;10.70;85.38
7200;BME280;3641;49.082;8.200;2023-04-22T02:06:55;99653.16;;;10.67;85.94
7200;BME280;3641;49.082;8.200;2023-04-22T02:09:21;99658.31;;;10.56;86.80
7200;BME280;3641;49.082;8.200;2023-04-22T02:11:48;99657.31;;;10.28;92.17
7200;BME280;3641;49.082;8.200;2023-04-22T02:14:14;99653.38;;;10.03;94.64
7200;BME280;3641;49.082;8.200;2023-04-22T02:16:42;99664.84;;;10.26;89.65
7200;BME280;3641;49.082;8.200;2023-04-22T02:19:09;99659.28;;;10.13;91.66
7200;BME280;3641;49.082;8.200;2023-04-22T02:21:35;99660.34;;;9.84;95.02
7200;BME280;3641;49.082;8.200;2023-04-22T02:24:02;99665.06;;;9.47;99.16
7200;BME280;3641;49.082;8.200;2023-04-22T02:26:29;99668.28;;;9.57;98.07
7200;BME280;3641;49.082;8.200;2023-04-22T02:28:55;99666.69;;;9.62;97.18
7200;BME280;3641;49.082;8.200;2023-04-22T02:31:21;99665.03;;;9.68;95.04
7200;BME280;3641;49.082;8.200;2023-04-22T02:33:49;99654.28;;;9.60;96.25
7200;BME280;3641;49.082;8.200;2023-04-22T02:36:16;99660.72;;;10.02;90.47
7200;BME280;3641;49.082;8.200;2023-04-22T02:38:42;99662.94;;;9.42;97.16
7200;BME280;3641;49.082;8.200;2023-04-22T02:41:08;99669.72;;;9.09;99.37
7200;BME280;3641;49.082;8.200;2023-04-22T02:43:35;99669.03;;;9.22;99.11
7200;BME280;3641;49.082;8.200;2023-04-22T02:46:02;99680.13;;;9.06;100.00
7200;BME280;3641;49.082;8.200;2023-04-22T02:48:28;99671.84;;;9.14;99.36
7200;BME280;3641;49.082;8.200;2023-04-22T02:50:56;99669.00;;;9.44;94.39
7200;BME280;3641;49.082;8.200;2023-04-22T02:53:23;99668.13;;;9.87;89.01
7200;BME280;3641;49.082;8.200;2023-04-22T02:55:49;99678.66;;;9.68;91.94
7200;BME280;3641;49.082;8.200;2023-04-22T02:58:16;99680.00;;;9.14;96.84
7200;BME280;3641;49.082;8.200;2023-04-22T03:00:43;99690.63;;;8.87;99.14
7200;BME280;3641;49.082;8.200;2023-04-22T03:03:09;99680.81;;;8.93;99.50
7200;BME280;3641;49.082;8.200;2023-04-22T03:05:36;99679.81;;;8.94;99.60
7200;BME280;3641;49.082;8.200;2023-04-22T03:08:03;99687.84;;;9.02;98.00
7200;BME280;3641;49.082;8.200;2023-04-22T03:10:30;99676.63;;;8.90;99.22
7200;BME280;3641;49.082;8.200;2023-04-22T03:12:57;99674.28;;;9.45;90.66
7200;BME280;3641;49.082;8.200;2023-04-22T03:15:23;99685.09;;;9.39;93.09
7200;BME280;3641;49.082;8.200;2023-04-22T03:17:50;99675.25;;;9.01;96.81
7200;BME280;3641;49.082;8.200;2023-04-22T03:20:16;99677.19;;;8.86;98.35
7200;BME280;3641;49.082;8.200;2023-04-22T03:22:43;99674.97;;;9.11;94.33
7200;BME280;3641;49.082;8.200;2023-04-22T03:25:11;99674.78;;;8.76;98.22
7200;BME280;3641;49.082;8.200;2023-04-22T03:27:37;99682.06;;;9.27;91.09
7200;BME280;3641;49.082;8.200;2023-04-22T03:30:06;99671.78;;;9.51;88.68
7200;BME280;3641;49.082;8.200;2023-04-22T03:32:32;99670.25;;;9.41;90.34
7200;BME280;3641;49.082;8.200;2023-04-22T03:34:59;99678.03;;;9.23;92.83
7200;BME280;3641;49.082;8.200;2023-04-22T03:37:25;99673.28;;;9.32;91.29
7200;BME280;3641;49.082;8.200;2023-04-22T03:39:52;99662.53;;;9.45;88.91
7200;BME280;3641;49.082;8.200;2023-04-22T03:42:19;99668.28;;;8.92;94.55
7200;BME280;3641;49.082;8.200;2023-04-22T03:44:46;99667.31;;;9.21;91.58
7200;BME280;3641;49.082;8.200;2023-04-22T03:47:12;99666.81;;;9.11;91.45
7200;BME280;3641;49.082;8.200;2023-04-22T03:49:39;99674.91;;;9.26;90.71
7200;BME280;3641;49.082;8.200;2023-04-22T03:52:05;99676.00;;;9.32;89.07
7200;BME280;3641;49.082;8.200;2023-04-22T03:54:32;99681.19;;;9.05;92.77
7200;BME280;3641;49.082;8.200;2023-04-22T03:56:58;99673.75;;;9.35;88.19
7200;BME280;3641;49.082;8.200;2023-04-22T03:59:26;99662.69;;;9.37;87.76
7200;BME280;3641;49.082;8.200;2023-04-22T04:01:52;99663.16;;;9.04;92.64
7200;BME280;3641;49.082;8.200;2023-04-22T04:04:19;99665.63;;;8.47;95.44
7200;BME280;3641;49.082;8.200;2023-04-22T04:06:47;99673.28;;;8.73;93.81
7200;BME280;3641;49.082;8.200;2023-04-22T04:09:13;99670.44;;;8.37;95.98
7200;BME280;3641;49.082;8.200;2023-04-22T04:11:40;99661.91;;;8.10;97.95
7200;BME280;3641;49.082;8.200;2023-04-22T04:14:06;99665.25;;;7.97;98.53
7200;BME280;3641;49.082;8.200;2023-04-22T04:16:35;99668.97;;;8.49;94.63
7200;BME280;3641;49.082;8.200;2023-04-22T04:19:02;99659.19;;;7.95;98.18
7200;BME280;3641;49.082;8.200;2023-04-22T04:21:28;99667.47;;;8.17;96.59
7200;BME280;3641;49.082;8.200;2023-04-22T04:23:57;99677.28;;;8.18;97.71
7200;BME280;3641;49.082;8.200;2023-04-22T04:26:24;99664.94;;;8.30;94.92
7200;BME280;3641;49.082;8.200;2023-04-22T04:28:51;99667.16;;;8.42;94.06
7200;BME280;3641;49.082;8.200;2023-04-22T04:31:18;99658.47;;;8.46;93.81
7200;BME280;3641;49.082;8.200;2023-04-22T04:33:46;99663.44;;;8.58;92.38
7200;BME280;3641;49.082;8.200;2023-04-22T04:36:13;99660.59;;;8.21;94.97
7200;BME280;3641;49.082;8.200;2023-04-22T04:38:39;99659.03;;;8.27;95.78
7200;BME280;3641;49.082;8.200;2023-04-22T04:41:06;99654.25;;;8.14;96.04
7200;BME280;3641;49.082;8.200;2023-04-22T04:43:33;99656.97;;;8.59;92.70
7200;BME280;3641;49.082;8.200;2023-04-22T04:46:00;99658.09;;;8.49;93.46
7200;BME280;3641;49.082;8.200;2023-04-22T04:48:27;99656.97;;;8.44;93.04
7200;BME280;3641;49.082;8.200;2023-04-22T04:50:55;99657.22;;;8.79;89.00
7200;BME280;3641;49.082;8.200;2023-04-22T04:53:23;99663.13;;;8.37;94.28
7200;BME280;3641;49.082;8.200;2023-04-22T04:55:49;99658.16;;;8.26;95.79
7200;BME280;3641;49.082;8.200;2023-04-22T04:58:16;99661.19;;;8.61;92.05
7200;BME280;3641;49.082;8.200;2023-04-22T05:00:42;99660.50;;;8.74;90.96
7200;BME280;3641;49.082;8.200;2023-04-22T05:03:09;99663.97;;;8.83;89.09
7200;BME280;3641;49.082;8.200;2023-04-22T05:05:35;99671.88;;;8.78;88.93
7200;BME280;3641;49.082;8.200;2023-04-22T05:08:03;99677.84;;;8.88;87.00
7200;BME280;3641;49.082;8.200;2023-04-22T05:10:29;99681.00;;;8.91;87.56
7200;BME280;3641;49.082;8.200;2023-04-22T05:12:56;99676.50;;;8.99;86.45
7200;BME280;3641;49.082;8.200;2023-04-22T05:15:22;99678.63;;;8.22;93.81
7200;BME280;3641;49.082;8.200;2023-04-22T05:17:49;99680.22;;;8.61;90.00
7200;BME280;3641;49.082;8.200;2023-04-22T05:20:15;99690.13;;;8.39;92.54
7200;BME280;3641;49.082;8.200;2023-04-22T05:22:42;99690.44;;;8.59;89.79
7200;BME280;3641;49.082;8.200;2023-04-22T05:25:11;99693.72;;;8.40;93.19
7200;BME280;3641;49.082;8.200;2023-04-22T05:27:37;99695.50;;;8.77;88.36
7200;BME280;3641;49.082;8.200;2023-04-22T05:30:06;99694.47;;;8.18;94.26
7200;BME280;3641;49.082;8.200;2023-04-22T05:32:33;99699.00;;;8.56;91.22
7200;BME280;3641;49.082;8.200;2023-04-22T05:34:59;99702.53;;;8.27;94.33
7200;BME280;3641;49.082;8.200;2023-04-22T05:37:26;99702.25;;;8.36;95.12
7200;BME280;3641;49.082;8.200;2023-04-22T05:39:52;99699.66;;;8.43;93.07
7200;BME280;3641;49.082;8.200;2023-04-22T05:42:20;99701.88;;;8.84;88.53
7200;BME280;3641;49.082;8.200;2023-04-22T05:44:47;99699.03;;;8.93;88.09
7200;BME280;3641;49.082;8.200;2023-04-22T05:47:13;99710.53;;;8.73;91.00
7200;BME280;3641;49.082;8.200;2023-04-22T05:49:40;99707.78;;;8.88;91.57
7200;BME280;3641;49.082;8.200;2023-04-22T05:52:06;99707.47;;;9.13;89.02
7200;BME280;3641;49.082;8.200;2023-04-22T05:54:33;99702.78;;;9.28;88.14
7200;BME280;3641;49.082;8.200;2023-04-22T05:56:59;99712.22;;;9.25;92.07
7200;BME280;3641;49.082;8.200;2023-04-22T05:59:27;99710.44;;;9.39;89.86
7200;BME280;3641;49.082;8.200;2023-04-22T06:01:54;99707.22;;;9.29;90.24
7200;BME280;3641;49.082;8.200;2023-04-22T06:04:20;99708.97;;;9.37;89.13
7200;BME280;3641;49.082;8.200;2023-04-22T06:06:47;99699.13;;;9.57;87.33
7200;BME280;3641;49.082;8.200;2023-04-22T06:09:14;99701.25;;;9.40;89.25
7200;BME280;3641;49.082;8.200;2023-04-22T06:11:40;99711.06;;;9.56;87.78
7200;BME280;3641;49.082;8.200;2023-04-22T06:14:07;99705.09;;;9.68;86.83
7200;BME280;3641;49.082;8.200;2023-04-22T06:16:34;99704.69;;;9.71;87.87
7200;BME280;3641;49.082;8.200;2023-04-22T06:19:01;99694.88;;;9.76;86.82
7200;BME280;3641;49.082;8.200;2023-04-22T06:21:27;99684.84;;;9.77;87.14
7200;BME280;3641;49.082;8.200;2023-04-22T06:23:54;99690.94;;;9.79;87.86
7200;BME280;3641;49.082;8.200;2023-04-22T06:26:21;99696.47;;;9.92;87.57
7200;BME280;3641;49.082;8.200;2023-04-22T06:28:47;99695.69;;;9.98;87.66
7200;BME280;3641;49.082;8.200;2023-04-22T06:31:14;99689.06;;;10.08;86.58
7200;BME280;3641;49.082;8.200;2023-04-22T06:33:42;99689.28;;;10.13;87.07
7200;BME280;3641;49.082;8.200;2023-04-22T06:36:08;99696.69;;;10.19;86.44
7200;BME280;3641;49.082;8.200;2023-04-22T06:38:35;99699.84;;;10.23;87.83
7200;BME280;3641;49.082;8.200;2023-04-22T06:41:01;99698.78;;;10.17;91.08
7200;BME280;3641;49.082;8.200;2023-04-22T06:43:28;99703.03;;;10.26;87.57
7200;BME280;3641;49.082;8.200;2023-04-22T06:45:54;99703.19;;;10.18;93.08
7200;BME280;3641;49.082;8.200;2023-04-22T06:48:20;99697.81;;;10.31;88.42
7200;BME280;3641;49.082;8.200;2023-04-22T06:50:48;99698.66;;;10.32;90.80
7200;BME280;3641;49.082;8.200;2023-04-22T06:53:15;99695.56;;;10.35;92.01
7200;BME280;3641;49.082;8.200;2023-04-22T06:55:41;99694.84;;;10.54;88.30
7200;BME280;3641;49.082;8.200;2023-04-22T06:58:08;99692.38;;;10.60;89.07
7200;BME280;3641;49.082;8.200;2023-04-22T07:00:34;99696.34;;;10.64;90.89
7200;BME280;3641;49.082;8.200;2023-04-22T07:03:01;99699.56;;;10.74;88.92
7200;BME280;3641;49.082;8.200;2023-04-22T07:05:27;99695.13;;;10.66;94.11
7200;BME280;3641;49.082;8.200;2023-04-22T07:07:55;99699.78;;;10.72;93.59
7200;BME280;3641;49.082;8.200;2023-04-22T07:10:21;99699.59;;;10.81;90.87
7200;BME280;3641;49.082;8.200;2023-04-22T07:12:48;99699.44;;;10.89;91.57
7200;BME280;3641;49.082;8.200;2023-04-22T07:15:14;99702.41;;;11.01;91.49
7200;BME280;3641;49.082;8.200;2023-04-22T07:17:41;99700.16;;;11.11;89.92
7200;BME280;3641;49.082;8.200;2023-04-22T07:20:08;99700.84;;;11.26;89.51
7200;BME280;3641;49.082;8.200;2023-04-22T07:22:35;99700.63;;;11.35;88.70
7200;BME280;3641;49.082;8.200;2023-04-22T07:25:03;99708.03;;;11.41;89.80
7200;BME280;3641;49.082;8.200;2023-04-22T07:27:31;99699.84;;;11.61;88.40
7200;BME280;3641;49.082;8.200;2023-04-22T07:29:58;99693.34;;;11.75;86.66
7200;BME280;3641;49.082;8.200;2023-04-22T07:32:24;99694.59;;;11.79;83.55
7200;BME280;3641;49.082;8.200;2023-04-22T07:34:51;99695.66;;;11.78;82.69
7200;BME280;3641;49.082;8.200;2023-04-22T07:37:17;99694.19;;;11.82;82.33
7200;BME280;3641;49.082;8.200;2023-04-22T07:39:44;99691.44;;;11.89;82.80
7200;BME280;3641;49.082;8.200;2023-04-22T07:42:11;99691.25;;;11.84;82.45
7200;BME280;3641;49.082;8.200;2023-04-22T07:44:38;99690.44;;;12.04;82.49
7200;BME280;3641;49.082;8.200;2023-04-22T07:47:04;99692.09;;;12.25;79.66
7200;BME280;3641;49.082;8.200;2023-04-22T07:49:32;99683.41;;;12.41;78.36
7200;BME280;3641;49.082;8.200;2023-04-22T07:51:59;99689.34;;;12.38;78.52
7200;BME280;3641;49.082;8.200;2023-04-22T07:54:25;99692.91;;;12.45;76.05
7200;BME280;3641;49.082;8.200;2023-04-22T07:56:52;99685.53;;;12.52;74.93
7200;BME280;3641;49.082;8.200;2023-04-22T07:59:19;99692.00;;;12.65;75.48
7200;BME280;3641;49.082;8.200;2023-04-22T08:01:46;99683.97;;;12.70;76.31
7200;BME280;3641;49.082;8.200;2023-04-22T08:04:12;99684.84;;;12.70;75.88
7200;BME280;3641;49.082;8.200;2023-04-22T08:06:39;99684.16;;;12.82;74.34
7200;BME280;3641;49.082;8.200;2023-04-22T08:09:05;99666.94;;;12.68;76.99
7200;BME280;3641;49.082;8.200;2023-04-22T08:11:34;99673.81;;;12.84;77.11
7200;BME280;3641;49.082;8.200;2023-04-22T08:14:00;99675.25;;;12.93;76.51
7200;BME280;3641;49.082;8.200;2023-04-22T08:16:28;99666.66;;;12.89;76.23
7200;BME280;3641;49.082;8.200;2023-04-22T08:18:55;99677.34;;;12.98;75.92
7200;BME280;3641;49.082;8.200;2023-04-22T08:21:22;99662.09;;;13.15;76.23
7200;BME280;3641;49.082;8.200;2023-04-22T08:23:48;99675.09;;;13.33;75.10
7200;BME280;3641;49.082;8.200;2023-04-22T08:26:15;99670.84;;;13.37;74.44
7200;BME280;3641;49.082;8.200;2023-04-22T08:28:41;99667.22;;;13.43;73.54
7200;BME280;3641;49.082;8.200;2023-04-22T08:31:08;99671.25;;;13.41;74.29
7200;BME280;3641;49.082;8.200;2023-04-22T08:33:37;99677.75;;;13.47;74.51
7200;BME280;3641;49.082;8.200;2023-04-22T08:36:04;99673.16;;;13.72;73.06
7200;BME280;3641;49.082;8.200;2023-04-22T08:38:30;99683.56;;;13.89;72.25
7200;BME280;3641;49.082;8.200;2023-04-22T08:40:57;99672.13;;;13.92;72.41
7200;BME280;3641;49.082;8.200;2023-04-22T08:43:25;99664.84;;;13.79;74.34
7200;BME280;3641;49.082;8.200;2023-04-22T08:45:51;99660.09;;;13.93;73.50
7200;BME280;3641;49.082;8.200;2023-04-22T08:48:18;99661.81;;;14.12;70.73
7200;BME280;3641;49.082;8.200;2023-04-22T08:50:47;99655.38;;;14.44;69.13
7200;BME280;3641;49.082;8.200;2023-04-22T08:53:13;99655.38;;;14.44;67.81
7200;BME280;3641;49.082;8.200;2023-04-22T08:55:43;99660.91;;;14.62;65.98
7200;BME280;3641;49.082;8.200;2023-04-22T08:58:10;99666.31;;;14.69;65.85
7200;BME280;3641;49.082;8.200;2023-04-22T09:00:37;99663.78;;;14.49;67.85
7200;BME280;3641;49.082;8.200;2023-04-22T09:03:05;99649.16;;;14.74;67.03
7200;BME280;3641;49.082;8.200;2023-04-22T09:05:32;99645.72;;;14.78;65.48
7200;BME280;3641;49.082;8.200;2023-04-22T09:08:01;99646.16;;;14.75;64.62
7200;BME280;3641;49.082;8.200;2023-04-22T09:10:28;99640.72;;;14.87;65.56
7200;BME280;3641;49.082;8.200;2023-04-22T09:12:56;99644.63;;;14.98;65.98
7200;BME280;3641;49.082;8.200;2023-04-22T09:15:23;99644.38;;;14.99;66.55
7200;BME280;3641;49.082;8.200;2023-04-22T09:17:50;99640.56;;;15.00;65.58
7200;BME280;3641;49.082;8.200;2023-04-22T09:20:17;99639.34;;;15.26;63.71
7200;BME280;3641;49.082;8.200;2023-04-22T09:22:45;99633.72;;;14.91;67.17
7200;BME280;3641;49.082;8.200;2023-04-22T09:25:17;99634.03;;;15.01;65.47
7200;BME280;3641;49.082;8.200;2023-04-22T09:27:47;99626.31;;;15.22;64.12
7200;BME280;3641;49.082;8.200;2023-04-22T09:30:17;99620.56;;;15.23;64.82
7200;BME280;3641;49.082;8.200;2023-04-22T09:32:51;99620.25;;;15.32;64.96
7200;BME280;3641;49.082;8.200;2023-04-22T09:35:23;99613.63;;;15.63;62.34
7200;BME280;3641;49.082;8.200;2023-04-22T09:37:51;99619.00;;;15.58;62.94
7200;BME280;3641;49.082;8.200;2023-04-22T09:40:19;99613.56;;;15.39;65.58
7200;BME280;3641;49.082;8.200;2023-04-22T09:42:50;99610.03;;;15.62;62.45
7200;BME280;3641;49.082;8.200;2023-04-22T09:45:30;99609.97;;;15.93;61.48
7200;BME280;3641;49.082;8.200;2023-04-22T09:48:01;99607.81;;;15.83;62.94
7200;BME280;3641;49.082;8.200;2023-04-22T09:50:28;99607.72;;;16.13;60.47
7200;BME280;3641;49.082;8.200;2023-04-22T09:52:57;99610.78;;;16.29;59.51
7200;BME280;3641;49.082;8.200;2023-04-22T09:55:27;99613.75;;;16.63;58.21
7200;BME280;3641;49.082;8.200;2023-04-22T09:57:55;99610.69;;;16.76;59.16
7200;BME280;3641;49.082;8.200;2023-04-22T10:00:23;99615.47;;;16.93;57.06
7200;BME280;3641;49.082;8.200;2023-04-22T10:02:50;99612.84;;;16.86;56.97
7200;BME280;3641;49.082;8.200;2023-04-22T10:05:17;99602.38;;;17.00;57.00
7200;BME280;3641;49.082;8.200;2023-04-22T10:07:44;99607.94;;;17.17;55.58
7200;BME280;3641;49.082;8.200;2023-04-22T10:10:10;99604.25;;;17.57;52.40
7200;BME280;3641;49.082;8.200;2023-04-22T10:12:38;99600.91;;;17.72;52.24
7200;BME280;3641;49.082;8.200;2023-04-22T10:15:06;99600.53;;;17.85;52.69
7200;BME280;3641;49.082;8.200;2023-04-22T10:17:35;99606.06;;;17.85;51.62
7200;BME280;3641;49.082;8.200;2023-04-22T10:20:05;99609.94;;;18.01;50.86
7200;BME280;3641;49.082;8.200;2023-04-22T10:22:34;99600.56;;;18.19;52.09
7200;BME280;3641;49.082;8.200;2023-04-22T10:25:00;99604.84;;;18.10;50.13
7200;BME280;3641;49.082;8.200;2023-04-22T10:27:27;99604.00;;;18.09;50.40
7200;BME280;3641;49.082;8.200;2023-04-22T10:29:55;99598.25;;;17.94;53.15
7200;BME280;3641;49.082;8.200;2023-04-22T10:32:25;99606.13;;;18.41;48.87
7200;BME280;3641;49.082;8.200;2023-04-22T10:35:10;99597.91;;;18.68;47.81
7200;BME280;3641;49.082;8.200;2023-04-22T10:37:41;99601.25;;;18.70;46.38
7200;BME280;3641;49.082;8.200;2023-04-22T10:40:13;99606.00;;;18.75;47.90
7200;BME280;3641;49.082;8.200;2023-04-22T10:42:40;99596.94;;;18.80;49.03
7200;BME280;3641;49.082;8.200;2023-04-22T10:45:12;99609.03;;;18.96;45.65
7200;BME280;3641;49.082;8.200;2023-04-22T10:47:40;99597.63;;;18.92;47.44
7200;BME280;3641;49.082;8.200;2023-04-22T10:50:11;99595.97;;;18.69;51.30
7200;BME280;3641;49.082;8.200;2023-04-22T10:52:39;99602.84;;;19.11;46.22
7200;BME280;3641;49.082;8.200;2023-04-22T10:55:06;99583.22;;;19.45;43.92
7200;BME280;3641;49.082;8.200;2023-04-22T10:57:36;99600.06;;;19.11;47.51
7200;BME280;3641;49.082;8.200;2023-04-22T11:00:29;99592.97;;;19.20;42.57
7200;BME280;3641;49.082;8.200;2023-04-22T11:03:15;99588.66;;;19.62;42.37
7200;BME280;3641;49.082;8.200;2023-04-22T11:05:42;99591.81;;;19.16;47.39
7200;BME280;3641;49.082;8.200;2023-04-22T11:08:15;99593.66;;;19.32;46.03
7200;BME280;3641;49.082;8.200;2023-04-22T11:10:45;99597.66;;;19.47;44.90
7200;BME280;3641;49.082;8.200;2023-04-22T11:13:13;99588.19;;;19.75;43.68
7200;BME280;3641;49.082;8.200;2023-04-22T11:15:43;99593.19;;;19.40;46.02
7200;BME280;3641;49.082;8.200;2023-04-22T11:18:14;99577.81;;;19.87;42.46
7200;BME280;3641;49.082;8.200;2023-04-22T11:20:40;99583.16;;;19.67;43.62
7200;BME280;3641;49.082;8.200;2023-04-22T11:23:07;99569.56;;;19.65;43.46
7200;BME280;3641;49.082;8.200;2023-04-22T11:25:34;99571.22;;;19.99;42.17
7200;BME280;3641;49.082;8.200;2023-04-22T11:28:00;99571.13;;;20.31;42.42
7200;BME280;3641;49.082;8.200;2023-04-22T11:30:28;99580.22;;;20.21;41.77
7200;BME280;3641;49.082;8.200;2023-04-22T11:32:58;99578.84;;;20.19;42.16
7200;BME280;3641;49.082;8.200;2023-04-22T11:35:27;99586.81;;;19.72;45.13
7200;BME280;3641;49.082;8.200;2023-04-22T11:37:57;99586.16;;;19.60;43.46
7200;BME280;3641;49.082;8.200;2023-04-22T11:40:26;99589.94;;;19.49;45.19
7200;BME280;3641;49.082;8.200;2023-04-22T11:42:53;99597.38;;;19.21;44.69
7200;BME280;3641;49.082;8.200;2023-04-22T11:45:20;99588.31;;;18.98;49.04
7200;BME280;3641;49.082;8.200;2023-04-22T11:47:48;99609.00;;;19.18;45.21
7200;BME280;3641;49.082;8.200;2023-04-22T11:50:17;99600.00;;;19.33;43.87
7200;BME280;3641;49.082;8.200;2023-04-22T11:52:48;99600.59;;;19.35;42.68
7200;BME280;3641;49.082;8.200;2023-04-22T11:55:16;99604.69;;;19.59;43.20
7200;BME280;3641;49.082;8.200;2023-04-22T11:57:45;99592.84;;;19.64;44.29
7200;BME280;3641;49.082;8.200;2023-04-22T12:00:17;99592.75;;;19.86;41.66
7200;BME280;3641;49.082;8.200;2023-04-22T12:02:54;99588.56;;;19.78;41.66
7200;BME280;3641;49.082;8.200;2023-04-22T12:05:31;99583.91;;;19.57;43.12
7200;BME280;3641;49.082;8.200;2023-04-22T12:07:59;99598.75;;;19.46;45.00
7200;BME280;3641;49.082;8.200;2023-04-22T12:10:25;99598.13;;;19.66;42.76
7200;BME280;3641;49.082;8.200;2023-04-22T12:12:53;99605.38;;;19.45;43.39
7200;BME280;3641;49.082;8.200;2023-04-22T12:15:19;99598.22;;;19.49;42.84
7200;BME280;3641;49.082;8.200;2023-04-22T12:17:48;99605.56;;;19.33;44.47
7200;BME280;3641;49.082;8.200;2023-04-22T12:20:16;99606.41;;;19.38;44.40
7200;BME280;3641;49.082;8.200;2023-04-22T12:22:44;99613.69;;;19.17;44.94
7200;BME280;3641;49.082;8.200;2023-04-22T12:25:11;99620.66;;;18.98;46.50
7200;BME280;3641;49.082;8.200;2023-04-22T12:27:42;99602.91;;;18.94;42.42
7200;BME280;3641;49.082;8.200;2023-04-22T12:30:09;99604.72;;;18.83;42.28
7200;BME280;3641;49.082;8.200;2023-04-22T12:32:36;99608.34;;;18.66;45.25
7200;BME280;3641;49.082;8.200;2023-04-22T12:35:03;99603.34;;;18.63;44.71
7200;BME280;3641;49.082;8.200;2023-04-22T12:37:29;99611.56;;;18.58;45.83
7200;BME280;3641;49.082;8.200;2023-04-22T12:39:57;99613.97;;;18.49;46.83
7200;BME280;3641;49.082;8.200;2023-04-22T12:42:23;99603.22;;;18.53;49.32
7200;BME280;3641;49.082;8.200;2023-04-22T12:44:50;99616.03;;;18.59;47.30
7200;BME280;3641;49.082;8.200;2023-04-22T12:47:16;99612.03;;;18.50;43.82
7200;BME280;3641;49.082;8.200;2023-04-22T12:49:43;99610.19;;;18.56;44.85
7200;BME280;3641;49.082;8.200;2023-04-22T12:52:11;99613.81;;;18.39;43.68
7200;BME280;3641;49.082;8.200;2023-04-22T12:54:37;99624.97;;;18.27;42.92
7200;BME280;3641;49.082;8.200;2023-04-22T12:57:05;99619.78;;;18.31;46.63
7200;BME280;3641;49.082;8.200;2023-04-22T12:59:32;99617.00;;;18.31;42.62
7200;BME280;3641;49.082;8.200;2023-04-22T13:01:58;99617.25;;;18.29;44.62
7200;BME280;3641;49.082;8.200;2023-04-22T13:04:25;99621.22;;;18.33;44.72
7200;BME280;3641;49.082;8.200;2023-04-22T13:06:51;99621.41;;;18.27;44.33
7200;BME280;3641;49.082;8.200;2023-04-22T13:09:22;99616.28;;;18.19;43.46
7200;BME280;3641;49.082;8.200;2023-04-22T13:11:49;99621.09;;;18.06;43.45
7200;BME280;3641;49.082;8.200;2023-04-22T13:14:17;99627.88;;;17.99;44.28
7200;BME280;3641;49.082;8.200;2023-04-22T13:16:44;99623.84;;;17.89;45.10
7200;BME280;3641;49.082;8.200;2023-04-22T13:19:11;99620.13;;;17.84;45.26
7200;BME280;3641;49.082;8.200;2023-04-22T13:21:37;99614.78;;;17.77;43.81
7200;BME280;3641;49.082;8.200;2023-04-22T13:24:04;99619.53;;;17.82;44.09
7200;BME280;3641;49.082;8.200;2023-04-22T13:26:30;99617.78;;;17.75;43.80